sensor_id;sensor_type;location;lat;lon;timestamp;P1;durP1;ratioP1;P2;durP2;ratioP2
21527;SDS011;10925;49.102;-0.370;2022-07-09T00:00:33;11.25;;;7.50;;
21527;SDS011;10925;49.102;-0.370;2022-07-09T00:03:00;10.82;;;8.27;;
21527;SDS011;10925;49.102;-0.370;2022-07-09T00:05:25;10.50;;;7.38;;
21527;SDS011;10925;49.102;-0.370;2022-07-09T00:07:52;10.73;;;7.03;;
21527;SDS011;10925;49.102;-0.370;2022-07-09T00:10:19;10.38;;;7.72;;
21527;SDS011;10925;49.102;-0.370;2022-07-09T00:12:46;11.93;;;7.47;;
21527;SDS011;10925;49.102;-0.370;2022-07-09T00:15:12;13.30;;;7.40;;
21527;SDS011;10925;49.102;-0.370;2022-07-09T00:17:39;9.73;;;7.60;;
21527;SDS011;10925;49.102;-0.370;2022-07-09T00:20:06;13.20;;;7.72;;
21527;SDS011;10925;49.102;-0.370;2022-07-09T00:22:33;10.60;;;8.02;;
21527;SDS011;10925;49.102;-0.370;2022-07-09T00:25:00;9.00;;;7.65;;
21527;SDS011;10925;49.102;-0.370;2022-07-09T00:27:26;10.40;;;7.60;;
21527;SDS011;10925;49.102;-0.370;2022-07-09T00:29:53;9.13;;;7.30;;
21527;SDS011;10925;49.102;-0.370;2022-07-09T00:32:20;8.48;;;7.00;;
21527;SDS011;10925;49.102;-0.370;2022-07-09T00:34:46;12.05;;;7.05;;
21527;SDS011;10925;49.102;-0.370;2022-07-09T00:37:13;10.85;;;7.20;;
21527;SDS011;10925;49.102;-0.370;2022-07-09T00:39:40;12.05;;;7.55;;
21527;SDS011;10925;49.102;-0.370;2022-07-09T00:42:07;9.88;;;6.80;;
21527;SDS011;10925;49.102;-0.370;2022-07-09T00:44:34;8.88;;;6.88;;
21527;SDS011;10925;49.102;-0.370;2022-07-09T00:47:05;9.80;;;6.50;;
21527;SDS011;10925;49.102;-0.370;2022-07-09T00:49:35;7.85;;;6.80;;
21527;SDS011;10925;49.102;-0.370;2022-07-09T00:52:03;11.27;;;7.15;;
21527;SDS011;10925;49.102;-0.370;2022-07-09T00:54:31;10.70;;;6.60;;
21527;SDS011;10925;49.102;-0.370;2022-07-09T00:56:57;10.95;;;7.05;;
21527;SDS011;10925;49.102;-0.370;2022-07-09T00:59:24;9.60;;;6.75;;
21527;SDS011;10925;49.102;-0.370;2022-07-09T01:01:51;8.57;;;6.43;;
21527;SDS011;10925;49.102;-0.370;2022-07-09T01:04:18;9.95;;;6.75;;
21527;SDS011;10925;49.102;-0.370;2022-07-09T01:06:45;9.80;;;6.30;;
21527;SDS011;10925;49.102;-0.370;2022-07-09T01:09:12;8.57;;;5.72;;
21527;SDS011;10925;49.102;-0.370;2022-07-09T01:11:38;9.05;;;6.10;;
21527;SDS011;10925;49.102;-0.370;2022-07-09T01:14:05;7.88;;;6.55;;
21527;SDS011;10925;49.102;-0.370;2022-07-09T01:16:33;8.32;;;6.03;;
21527;SDS011;10925;49.102;-0.370;2022-07-09T01:18:58;7.68;;;6.13;;
21527;SDS011;10925;49.102;-0.370;2022-07-09T01:21:24;9.23;;;6.25;;
21527;SDS011;10925;49.102;-0.370;2022-07-09T01:23:51;8.30;;;6.35;;
21527;SDS011;10925;49.102;-0.370;2022-07-09T01:26:17;7.35;;;6.15;;
21527;SDS011;10925;49.102;-0.370;2022-07-09T01:28:47;8.98;;;6.07;;
21527;SDS011;10925;49.102;-0.370;2022-07-09T01:31:14;7.10;;;6.28;;
21527;SDS011;10925;49.102;-0.370;2022-07-09T01:33:40;8.93;;;6.22;;
21527;SDS011;10925;49.102;-0.370;2022-07-09T01:36:06;10.05;;;5.97;;
21527;SDS011;10925;49.102;-0.370;2022-07-09T01:38:33;8.13;;;6.22;;
21527;SDS011;10925;49.102;-0.370;2022-07-09T01:41:01;9.65;;;6.82;;
21527;SDS011;10925;49.102;-0.370;2022-07-09T01:43:27;11.05;;;6.85;;
21527;SDS011;10925;49.102;-0.370;2022-07-09T01:45:54;10.55;;;6.75;;
21527;SDS011;10925;49.102;-0.370;2022-07-09T01:48:21;9.05;;;6.20;;
21527;SDS011;10925;49.102;-0.370;2022-07-09T01:50:46;7.93;;;6.60;;
21527;SDS011;10925;49.102;-0.370;2022-07-09T01:53:13;9.02;;;5.70;;
21527;SDS011;10925;49.102;-0.370;2022-07-09T01:55:39;8.93;;;6.10;;
21527;SDS011;10925;49.102;-0.370;2022-07-09T01:58:05;8.85;;;5.97;;
21527;SDS011;10925;49.102;-0.370;2022-07-09T02:00:32;8.32;;;7.10;;
21527;SDS011;10925;49.102;-0.370;2022-07-09T02:02:58;9.32;;;7.25;;
21527;SDS011;10925;49.102;-0.370;2022-07-09T02:05:24;9.18;;;6.60;;
21527;SDS011;10925;49.102;-0.370;2022-07-09T02:07:50;8.35;;;6.60;;
21527;SDS011;10925;49.102;-0.370;2022-07-09T02:10:17;10.43;;;6.60;;
21527;SDS011;10925;49.102;-0.370;2022-07-09T02:12:43;7.10;;;6.07;;
21527;SDS011;10925;49.102;-0.370;2022-07-09T02:15:09;10.70;;;6.38;;
21527;SDS011;10925;49.102;-0.370;2022-07-09T02:17:39;7.50;;;5.70;;
21527;SDS011;10925;49.102;-0.370;2022-07-09T02:20:06;8.48;;;5.53;;
21527;SDS011;10925;49.102;-0.370;2022-07-09T02:22:35;6.93;;;5.60;;
21527;SDS011;10925;49.102;-0.370;2022-07-09T02:25:02;12.63;;;5.68;;
21527;SDS011;10925;49.102;-0.370;2022-07-09T02:27:28;10.13;;;5.85;;
21527;SDS011;10925;49.102;-0.370;2022-07-09T02:29:55;7.47;;;5.72;;
21527;SDS011;10925;49.102;-0.370;2022-07-09T02:32:22;7.15;;;5.55;;
21527;SDS011;10925;49.102;-0.370;2022-07-09T02:34:47;7.35;;;5.50;;
21527;SDS011;10925;49.102;-0.370;2022-07-09T02:37:14;7.78;;;5.63;;
21527;SDS011;10925;49.102;-0.370;2022-07-09T02:39:41;6.97;;;5.22;;
21527;SDS011;10925;49.102;-0.370;2022-07-09T02:42:08;9.25;;;5.65;;
21527;SDS011;10925;49.102;-0.370;2022-07-09T02:44:34;6.53;;;5.75;;
21527;SDS011;10925;49.102;-0.370;2022-07-09T02:47:01;8.52;;;5.50;;
21527;SDS011;10925;49.102;-0.370;2022-07-09T02:49:28;8.30;;;5.57;;
21527;SDS011;10925;49.102;-0.370;2022-07-09T02:51:55;8.32;;;5.82;;
21527;SDS011;10925;49.102;-0.370;2022-07-09T02:54:24;9.10;;;5.63;;
21527;SDS011;10925;49.102;-0.370;2022-07-09T02:56:49;8.48;;;5.60;;
21527;SDS011;10925;49.102;-0.370;2022-07-09T02:59:16;7.38;;;5.55;;
21527;SDS011;10925;49.102;-0.370;2022-07-09T03:01:42;8.27;;;5.38;;
21527;SDS011;10925;49.102;-0.370;2022-07-09T03:04:10;8.77;;;5.57;;
21527;SDS011;10925;49.102;-0.370;2022-07-09T03:06:37;6.95;;;5.40;;
21527;SDS011;10925;49.102;-0.370;2022-07-09T03:09:04;6.68;;;5.95;;
21527;SDS011;10925;49.102;-0.370;2022-07-09T03:11:31;7.20;;;5.75;;
21527;SDS011;10925;49.102;-0.370;2022-07-09T03:13:57;8.70;;;5.97;;
21527;SDS011;10925;49.102;-0.370;2022-07-09T03:16:24;9.35;;;6.57;;
21527;SDS011;10925;49.102;-0.370;2022-07-09T03:18:51;8.80;;;6.30;;
21527;SDS011;10925;49.102;-0.370;2022-07-09T03:21:18;9.23;;;6.82;;
21527;SDS011;10925;49.102;-0.370;2022-07-09T03:23:44;11.70;;;6.75;;
21527;SDS011;10925;49.102;-0.370;2022-07-09T03:26:11;8.40;;;6.22;;
21527;SDS011;10925;49.102;-0.370;2022-07-09T03:28:38;9.25;;;6.45;;
21527;SDS011;10925;49.102;-0.370;2022-07-09T03:31:05;10.20;;;6.88;;
21527;SDS011;10925;49.102;-0.370;2022-07-09T03:33:30;9.05;;;6.57;;
21527;SDS011;10925;49.102;-0.370;2022-07-09T03:35:57;10.73;;;6.68;;
21527;SDS011;10925;49.102;-0.370;2022-07-09T03:38:24;9.32;;;6.80;;
21527;SDS011;10925;49.102;-0.370;2022-07-09T03:40:51;9.77;;;6.53;;
21527;SDS011;10925;49.102;-0.370;2022-07-09T03:43:19;7.80;;;5.90;;
21527;SDS011;10925;49.102;-0.370;2022-07-09T03:45:46;10.30;;;5.90;;
21527;SDS011;10925;49.102;-0.370;2022-07-09T03:48:11;8.85;;;6.65;;
21527;SDS011;10925;49.102;-0.370;2022-07-09T03:50:36;6.68;;;5.78;;
21527;SDS011;10925;49.102;-0.370;2022-07-09T03:53:03;8.23;;;6.00;;
21527;SDS011;10925;49.102;-0.370;2022-07-09T03:55:30;10.82;;;5.47;;
21527;SDS011;10925;49.102;-0.370;2022-07-09T03:57:57;8.77;;;5.43;;
21527;SDS011;10925;49.102;-0.370;2022-07-09T04:00:25;8.27;;;5.60;;
21527;SDS011;10925;49.102;-0.370;2022-07-09T04:02:54;7.85;;;5.68;;
21527;SDS011;10925;49.102;-0.370;2022-07-09T04:05:21;6.65;;;5.25;;
21527;SDS011;10925;49.102;-0.370;2022-07-09T04:07:48;7.53;;;5.50;;
21527;SDS011;10925;49.102;-0.370;2022-07-09T04:10:15;9.73;;;5.53;;
21527;SDS011;10925;49.102;-0.370;2022-07-09T04:12:42;8.32;;;4.97;;
21527;SDS011;10925;49.102;-0.370;2022-07-09T04:15:08;8.32;;;5.35;;
21527;SDS011;10925;49.102;-0.370;2022-07-09T04:17:35;5.93;;;5.10;;
21527;SDS011;10925;49.102;-0.370;2022-07-09T04:20:02;5.47;;;4.80;;
21527;SDS011;10925;49.102;-0.370;2022-07-09T04:22:29;7.07;;;4.90;;
21527;SDS011;10925;49.102;-0.370;2022-07-09T04:24:57;6.90;;;5.53;;
21527;SDS011;10925;49.102;-0.370;2022-07-09T04:27:24;7.95;;;5.43;;
21527;SDS011;10925;49.102;-0.370;2022-07-09T04:29:50;6.00;;;4.88;;
21527;SDS011;10925;49.102;-0.370;2022-07-09T04:32:17;9.23;;;4.95;;
21527;SDS011;10925;49.102;-0.370;2022-07-09T04:34:44;5.85;;;4.97;;
21527;SDS011;10925;49.102;-0.370;2022-07-09T04:37:11;8.43;;;4.78;;
21527;SDS011;10925;49.102;-0.370;2022-07-09T04:39:37;9.68;;;5.15;;
21527;SDS011;10925;49.102;-0.370;2022-07-09T04:42:04;7.93;;;4.97;;
21527;SDS011;10925;49.102;-0.370;2022-07-09T04:44:31;8.77;;;4.82;;
21527;SDS011;10925;49.102;-0.370;2022-07-09T04:46:58;6.95;;;5.18;;
21527;SDS011;10925;49.102;-0.370;2022-07-09T04:49:24;8.95;;;4.97;;
21527;SDS011;10925;49.102;-0.370;2022-07-09T04:51:51;6.70;;;4.60;;
21527;SDS011;10925;49.102;-0.370;2022-07-09T04:54:17;6.75;;;4.97;;
21527;SDS011;10925;49.102;-0.370;2022-07-09T04:56:42;6.90;;;4.60;;
21527;SDS011;10925;49.102;-0.370;2022-07-09T04:59:09;5.57;;;4.90;;
21527;SDS011;10925;49.102;-0.370;2022-07-09T05:01:34;6.30;;;4.72;;
21527;SDS011;10925;49.102;-0.370;2022-07-09T05:04:00;6.70;;;4.53;;
21527;SDS011;10925;49.102;-0.370;2022-07-09T05:06:27;6.80;;;5.13;;
21527;SDS011;10925;49.102;-0.370;2022-07-09T05:08:53;6.05;;;4.90;;
21527;SDS011;10925;49.102;-0.370;2022-07-09T05:11:20;4.60;;;3.63;;
21527;SDS011;10925;49.102;-0.370;2022-07-09T05:13:47;5.85;;;3.63;;
21527;SDS011;10925;49.102;-0.370;2022-07-09T05:16:14;4.43;;;3.40;;
21527;SDS011;10925;49.102;-0.370;2022-07-09T05:18:41;6.32;;;3.13;;
21527;SDS011;10925;49.102;-0.370;2022-07-09T05:21:08;5.18;;;3.00;;
21527;SDS011;10925;49.102;-0.370;2022-07-09T05:23:35;4.85;;;3.30;;
21527;SDS011;10925;49.102;-0.370;2022-07-09T05:26:01;5.85;;;3.10;;
21527;SDS011;10925;49.102;-0.370;2022-07-09T05:28:28;6.47;;;3.42;;
21527;SDS011;10925;49.102;-0.370;2022-07-09T05:30:54;4.78;;;3.35;;
21527;SDS011;10925;49.102;-0.370;2022-07-09T05:33:40;7.72;;;3.03;;
21527;SDS011;10925;49.102;-0.370;2022-07-09T05:36:07;6.18;;;2.95;;
21527;SDS011;10925;49.102;-0.370;2022-07-09T05:38:34;3.78;;;3.20;;
21527;SDS011;10925;49.102;-0.370;2022-07-09T05:41:02;4.10;;;2.88;;
21527;SDS011;10925;49.102;-0.370;2022-07-09T05:43:29;5.72;;;2.72;;
21527;SDS011;10925;49.102;-0.370;2022-07-09T05:45:55;3.65;;;2.90;;
21527;SDS011;10925;49.102;-0.370;2022-07-09T05:48:22;6.40;;;3.10;;
21527;SDS011;10925;49.102;-0.370;2022-07-09T05:50:48;4.55;;;3.40;;
21527;SDS011;10925;49.102;-0.370;2022-07-09T05:53:13;5.65;;;2.90;;
21527;SDS011;10925;49.102;-0.370;2022-07-09T05:55:40;4.43;;;2.67;;
21527;SDS011;10925;49.102;-0.370;2022-07-09T05:58:05;7.07;;;3.17;;
21527;SDS011;10925;49.102;-0.370;2022-07-09T06:00:32;5.13;;;3.20;;
21527;SDS011;10925;49.102;-0.370;2022-07-09T06:02:59;6.30;;;3.03;;
21527;SDS011;10925;49.102;-0.370;2022-07-09T06:05:26;7.97;;;3.28;;
21527;SDS011;10925;49.102;-0.370;2022-07-09T06:07:52;7.25;;;3.38;;
21527;SDS011;10925;49.102;-0.370;2022-07-09T06:10:19;4.10;;;3.05;;
21527;SDS011;10925;49.102;-0.370;2022-07-09T06:12:45;6.50;;;3.95;;
21527;SDS011;10925;49.102;-0.370;2022-07-09T06:15:11;7.38;;;3.47;;
21527;SDS011;10925;49.102;-0.370;2022-07-09T06:17:37;5.82;;;3.60;;
21527;SDS011;10925;49.102;-0.370;2022-07-09T06:20:05;6.45;;;3.80;;
21527;SDS011;10925;49.102;-0.370;2022-07-09T06:22:32;4.63;;;3.28;;
21527;SDS011;10925;49.102;-0.370;2022-07-09T06:24:59;6.95;;;4.07;;
21527;SDS011;10925;49.102;-0.370;2022-07-09T06:27:25;7.50;;;3.85;;
21527;SDS011;10925;49.102;-0.370;2022-07-09T06:29:52;5.38;;;3.58;;
21527;SDS011;10925;49.102;-0.370;2022-07-09T06:32:19;8.98;;;3.72;;
21527;SDS011;10925;49.102;-0.370;2022-07-09T06:34:45;5.93;;;3.85;;
21527;SDS011;10925;49.102;-0.370;2022-07-09T06:37:12;8.98;;;3.95;;
21527;SDS011;10925;49.102;-0.370;2022-07-09T06:39:39;7.00;;;3.88;;
21527;SDS011;10925;49.102;-0.370;2022-07-09T06:42:11;4.45;;;3.40;;
21527;SDS011;10925;49.102;-0.370;2022-07-09T06:44:37;5.70;;;3.30;;
21527;SDS011;10925;49.102;-0.370;2022-07-09T06:47:04;5.90;;;4.00;;
21527;SDS011;10925;49.102;-0.370;2022-07-09T06:49:31;7.72;;;3.38;;
21527;SDS011;10925;49.102;-0.370;2022-07-09T06:51:58;7.07;;;4.05;;
21527;SDS011;10925;49.102;-0.370;2022-07-09T06:54:25;10.52;;;4.25;;
21527;SDS011;10925;49.102;-0.370;2022-07-09T06:56:51;6.78;;;3.90;;
21527;SDS011;10925;49.102;-0.370;2022-07-09T06:59:16;5.55;;;3.42;;
21527;SDS011;10925;49.102;-0.370;2022-07-09T07:01:48;7.47;;;3.47;;
21527;SDS011;10925;49.102;-0.370;2022-07-09T07:04:13;6.35;;;3.95;;
21527;SDS011;10925;49.102;-0.370;2022-07-09T07:06:41;11.40;;;3.90;;
21527;SDS011;10925;49.102;-0.370;2022-07-09T07:09:08;5.53;;;3.88;;
21527;SDS011;10925;49.102;-0.370;2022-07-09T07:11:35;7.15;;;3.70;;
21527;SDS011;10925;49.102;-0.370;2022-07-09T07:14:02;10.38;;;4.20;;
21527;SDS011;10925;49.102;-0.370;2022-07-09T07:16:32;6.45;;;3.50;;
21527;SDS011;10925;49.102;-0.370;2022-07-09T07:19:00;7.93;;;4.22;;
21527;SDS011;10925;49.102;-0.370;2022-07-09T07:21:26;7.28;;;4.25;;
21527;SDS011;10925;49.102;-0.370;2022-07-09T07:23:52;6.93;;;3.55;;
21527;SDS011;10925;49.102;-0.370;2022-07-09T07:26:19;6.32;;;3.88;;
21527;SDS011;10925;49.102;-0.370;2022-07-09T07:28:46;10.75;;;4.30;;
21527;SDS011;10925;49.102;-0.370;2022-07-09T07:31:12;6.85;;;3.55;;
21527;SDS011;10925;49.102;-0.370;2022-07-09T07:33:38;6.55;;;4.05;;
21527;SDS011;10925;49.102;-0.370;2022-07-09T07:36:04;5.68;;;3.45;;
21527;SDS011;10925;49.102;-0.370;2022-07-09T07:38:32;9.60;;;3.85;;
21527;SDS011;10925;49.102;-0.370;2022-07-09T07:40:59;5.47;;;3.85;;
21527;SDS011;10925;49.102;-0.370;2022-07-09T07:43:26;5.57;;;3.20;;
21527;SDS011;10925;49.102;-0.370;2022-07-09T07:45:52;6.03;;;3.25;;
21527;SDS011;10925;49.102;-0.370;2022-07-09T07:48:18;6.60;;;3.22;;
21527;SDS011;10925;49.102;-0.370;2022-07-09T07:50:45;9.20;;;3.70;;
21527;SDS011;10925;49.102;-0.370;2022-07-09T07:53:12;6.70;;;3.60;;
21527;SDS011;10925;49.102;-0.370;2022-07-09T07:55:38;5.38;;;3.42;;
21527;SDS011;10925;49.102;-0.370;2022-07-09T07:58:05;5.75;;;3.17;;
21527;SDS011;10925;49.102;-0.370;2022-07-09T08:00:32;4.15;;;2.80;;
21527;SDS011;10925;49.102;-0.370;2022-07-09T08:02:59;5.60;;;3.10;;
21527;SDS011;10925;49.102;-0.370;2022-07-09T08:05:24;9.48;;;3.35;;
21527;SDS011;10925;49.102;-0.370;2022-07-09T08:07:52;6.70;;;3.20;;
21527;SDS011;10925;49.102;-0.370;2022-07-09T08:10:18;9.27;;;3.35;;
21527;SDS011;10925;49.102;-0.370;2022-07-09T08:12:45;8.02;;;3.72;;
21527;SDS011;10925;49.102;-0.370;2022-07-09T08:15:12;5.18;;;3.20;;
21527;SDS011;10925;49.102;-0.370;2022-07-09T08:23:03;6.13;;;3.78;;
21527;SDS011;10925;49.102;-0.370;2022-07-09T08:25:30;5.88;;;3.33;;
21527;SDS011;10925;49.102;-0.370;2022-07-09T08:27:57;6.65;;;3.40;;
21527;SDS011;10925;49.102;-0.370;2022-07-09T08:30:23;7.57;;;3.00;;
21527;SDS011;10925;49.102;-0.370;2022-07-09T08:32:50;5.40;;;3.40;;
21527;SDS011;10925;49.102;-0.370;2022-07-09T08:35:17;8.70;;;3.33;;
21527;SDS011;10925;49.102;-0.370;2022-07-09T08:37:43;6.57;;;3.35;;
21527;SDS011;10925;49.102;-0.370;2022-07-09T08:40:10;13.18;;;4.20;;
21527;SDS011;10925;49.102;-0.370;2022-07-09T08:42:37;9.10;;;3.60;;
21527;SDS011;10925;49.102;-0.370;2022-07-09T08:45:05;8.38;;;3.38;;
21527;SDS011;10925;49.102;-0.370;2022-07-09T08:47:33;9.25;;;3.30;;
21527;SDS011;10925;49.102;-0.370;2022-07-09T08:49:59;7.63;;;3.10;;
21527;SDS011;10925;49.102;-0.370;2022-07-09T08:52:27;6.75;;;3.17;;
21527;SDS011;10925;49.102;-0.370;2022-07-09T08:54:55;7.18;;;3.10;;
21527;SDS011;10925;49.102;-0.370;2022-07-09T08:57:20;9.80;;;2.97;;
21527;SDS011;10925;49.102;-0.370;2022-07-09T08:59:47;6.15;;;3.17;;
21527;SDS011;10925;49.102;-0.370;2022-07-09T09:02:14;6.15;;;3.85;;
21527;SDS011;10925;49.102;-0.370;2022-07-09T09:04:43;7.95;;;3.58;;
21527;SDS011;10925;49.102;-0.370;2022-07-09T09:09:40;7.65;;;3.28;;
21527;SDS011;10925;49.102;-0.370;2022-07-09T09:12:05;7.78;;;3.05;;
21527;SDS011;10925;49.102;-0.370;2022-07-09T09:14:32;7.43;;;3.10;;
21527;SDS011;10925;49.102;-0.370;2022-07-09T09:17:07;5.55;;;2.60;;
21527;SDS011;10925;49.102;-0.370;2022-07-09T09:19:35;5.07;;;2.85;;
21527;SDS011;10925;49.102;-0.370;2022-07-09T09:22:02;7.93;;;3.60;;
21527;SDS011;10925;49.102;-0.370;2022-07-09T09:24:29;7.60;;;3.28;;
21527;SDS011;10925;49.102;-0.370;2022-07-09T09:26:57;10.70;;;3.15;;
21527;SDS011;10925;49.102;-0.370;2022-07-09T09:29:24;6.85;;;2.67;;
21527;SDS011;10925;49.102;-0.370;2022-07-09T09:31:51;6.20;;;2.63;;
21527;SDS011;10925;49.102;-0.370;2022-07-09T09:34:17;5.88;;;2.83;;
21527;SDS011;10925;49.102;-0.370;2022-07-09T09:36:45;5.45;;;2.63;;
21527;SDS011;10925;49.102;-0.370;2022-07-09T09:39:25;4.97;;;2.35;;
21527;SDS011;10925;49.102;-0.370;2022-07-09T09:41:52;8.75;;;2.13;;
21527;SDS011;10925;49.102;-0.370;2022-07-09T09:44:20;5.30;;;2.28;;
21527;SDS011;10925;49.102;-0.370;2022-07-09T09:46:47;4.03;;;2.63;;
21527;SDS011;10925;49.102;-0.370;2022-07-09T09:49:14;4.85;;;2.80;;
21527;SDS011;10925;49.102;-0.370;2022-07-09T09:54:14;6.72;;;3.47;;
21527;SDS011;10925;49.102;-0.370;2022-07-09T09:56:41;12.63;;;4.15;;
21527;SDS011;10925;49.102;-0.370;2022-07-09T09:59:09;15.70;;;5.75;;
21527;SDS011;10925;49.102;-0.370;2022-07-09T10:01:36;13.93;;;5.40;;
21527;SDS011;10925;49.102;-0.370;2022-07-09T10:04:03;9.77;;;4.53;;
21527;SDS011;10925;49.102;-0.370;2022-07-09T10:06:30;10.07;;;4.45;;
21527;SDS011;10925;49.102;-0.370;2022-07-09T10:09:00;9.45;;;4.18;;
21527;SDS011;10925;49.102;-0.370;2022-07-09T10:11:37;8.18;;;4.07;;
21527;SDS011;10925;49.102;-0.370;2022-07-09T10:14:04;6.90;;;3.28;;
21527;SDS011;10925;49.102;-0.370;2022-07-09T10:16:40;10.68;;;3.78;;
21527;SDS011;10925;49.102;-0.370;2022-07-09T10:19:07;8.05;;;2.95;;
21527;SDS011;10925;49.102;-0.370;2022-07-09T10:21:38;4.78;;;3.00;;
21527;SDS011;10925;49.102;-0.370;2022-07-09T10:24:05;8.20;;;3.30;;
21527;SDS011;10925;49.102;-0.370;2022-07-09T10:26:35;6.43;;;3.50;;
21527;SDS011;10925;49.102;-0.370;2022-07-09T10:29:16;7.40;;;3.45;;
21527;SDS011;10925;49.102;-0.370;2022-07-09T10:31:43;4.50;;;2.83;;
21527;SDS011;10925;49.102;-0.370;2022-07-09T10:34:10;7.07;;;3.28;;
21527;SDS011;10925;49.102;-0.370;2022-07-09T10:36:55;4.97;;;2.30;;
21527;SDS011;10925;49.102;-0.370;2022-07-09T10:39:21;4.72;;;2.95;;
21527;SDS011;10925;49.102;-0.370;2022-07-09T10:42:03;7.00;;;2.90;;
21527;SDS011;10925;49.102;-0.370;2022-07-09T10:44:33;4.88;;;2.63;;
21527;SDS011;10925;49.102;-0.370;2022-07-09T10:47:00;3.97;;;3.00;;
21527;SDS011;10925;49.102;-0.370;2022-07-09T10:49:27;5.07;;;2.80;;
21527;SDS011;10925;49.102;-0.370;2022-07-09T10:51:57;5.28;;;2.65;;
21527;SDS011;10925;49.102;-0.370;2022-07-09T10:54:31;7.55;;;2.80;;
21527;SDS011;10925;49.102;-0.370;2022-07-09T10:56:57;9.52;;;3.45;;
21527;SDS011;10925;49.102;-0.370;2022-07-09T10:59:24;4.13;;;2.63;;
21527;SDS011;10925;49.102;-0.370;2022-07-09T11:01:51;9.00;;;2.95;;
21527;SDS011;10925;49.102;-0.370;2022-07-09T11:04:50;5.70;;;2.67;;
21527;SDS011;10925;49.102;-0.370;2022-07-09T11:07:27;10.07;;;3.25;;
21527;SDS011;10925;49.102;-0.370;2022-07-09T11:09:55;6.00;;;3.40;;
21527;SDS011;10925;49.102;-0.370;2022-07-09T11:12:21;5.13;;;2.85;;
21527;SDS011;10925;49.102;-0.370;2022-07-09T11:14:49;6.00;;;3.47;;
21527;SDS011;10925;49.102;-0.370;2022-07-09T11:17:15;4.28;;;2.53;;
21527;SDS011;10925;49.102;-0.370;2022-07-09T11:19:42;3.85;;;2.53;;
21527;SDS011;10925;49.102;-0.370;2022-07-09T11:22:09;4.72;;;2.00;;
21527;SDS011;10925;49.102;-0.370;2022-07-09T11:24:34;4.68;;;2.42;;
21527;SDS011;10925;49.102;-0.370;2022-07-09T11:27:03;3.88;;;2.42;;
21527;SDS011;10925;49.102;-0.370;2022-07-09T11:29:30;4.10;;;2.53;;
21527;SDS011;10925;49.102;-0.370;2022-07-09T11:31:57;5.15;;;2.17;;
21527;SDS011;10925;49.102;-0.370;2022-07-09T11:34:24;6.13;;;2.40;;
21527;SDS011;10925;49.102;-0.370;2022-07-09T11:36:51;2.45;;;2.13;;
21527;SDS011;10925;49.102;-0.370;2022-07-09T11:41:51;2.90;;;1.85;;
21527;SDS011;10925;49.102;-0.370;2022-07-09T11:44:27;5.45;;;2.50;;
21527;SDS011;10925;49.102;-0.370;2022-07-09T11:47:00;5.47;;;2.70;;
21527;SDS011;10925;49.102;-0.370;2022-07-09T11:49:33;6.50;;;2.60;;
21527;SDS011;10925;49.102;-0.370;2022-07-09T11:52:00;4.45;;;3.00;;
21527;SDS011;10925;49.102;-0.370;2022-07-09T11:54:28;6.07;;;2.67;;
21527;SDS011;10925;49.102;-0.370;2022-07-09T11:56:55;5.85;;;2.72;;
21527;SDS011;10925;49.102;-0.370;2022-07-09T11:59:30;6.60;;;2.50;;
21527;SDS011;10925;49.102;-0.370;2022-07-09T12:02:00;3.13;;;2.20;;
21527;SDS011;10925;49.102;-0.370;2022-07-09T12:04:29;8.52;;;2.72;;
21527;SDS011;10925;49.102;-0.370;2022-07-09T12:06:57;3.50;;;2.50;;
21527;SDS011;10925;49.102;-0.370;2022-07-09T12:09:27;6.43;;;2.70;;
21527;SDS011;10925;49.102;-0.370;2022-07-09T12:11:55;8.75;;;2.58;;
21527;SDS011;10925;49.102;-0.370;2022-07-09T12:14:22;6.68;;;2.55;;
21527;SDS011;10925;49.102;-0.370;2022-07-09T12:16:48;6.63;;;3.10;;
21527;SDS011;10925;49.102;-0.370;2022-07-09T12:19:14;5.97;;;2.55;;
21527;SDS011;10925;49.102;-0.370;2022-07-09T12:21:44;4.28;;;2.13;;
21527;SDS011;10925;49.102;-0.370;2022-07-09T12:24:11;7.80;;;2.72;;
21527;SDS011;10925;49.102;-0.370;2022-07-09T12:26:37;9.00;;;3.05;;
21527;SDS011;10925;49.102;-0.370;2022-07-09T12:36:44;6.70;;;3.08;;
21527;SDS011;10925;49.102;-0.370;2022-07-09T12:39:24;3.40;;;2.20;;
21527;SDS011;10925;49.102;-0.370;2022-07-09T12:41:54;5.03;;;2.92;;
21527;SDS011;10925;49.102;-0.370;2022-07-09T12:44:21;5.82;;;2.90;;
21527;SDS011;10925;49.102;-0.370;2022-07-09T12:46:48;6.95;;;2.70;;
21527;SDS011;10925;49.102;-0.370;2022-07-09T12:49:15;4.28;;;2.42;;
21527;SDS011;10925;49.102;-0.370;2022-07-09T12:51:40;2.67;;;1.60;;
21527;SDS011;10925;49.102;-0.370;2022-07-09T12:54:06;3.83;;;2.05;;
21527;SDS011;10925;49.102;-0.370;2022-07-09T12:56:33;3.58;;;2.17;;
21527;SDS011;10925;49.102;-0.370;2022-07-09T13:01:46;7.55;;;2.17;;
21527;SDS011;10925;49.102;-0.370;2022-07-09T13:04:16;7.07;;;2.05;;
21527;SDS011;10925;49.102;-0.370;2022-07-09T13:06:43;5.38;;;2.42;;
21527;SDS011;10925;49.102;-0.370;2022-07-09T13:09:10;3.35;;;2.17;;
21527;SDS011;10925;49.102;-0.370;2022-07-09T13:11:38;3.67;;;2.20;;
21527;SDS011;10925;49.102;-0.370;2022-07-09T13:14:05;3.88;;;2.00;;
21527;SDS011;10925;49.102;-0.370;2022-07-09T13:16:34;4.10;;;1.80;;
21527;SDS011;10925;49.102;-0.370;2022-07-09T13:18:59;7.22;;;1.92;;
21527;SDS011;10925;49.102;-0.370;2022-07-09T13:21:27;4.22;;;1.73;;
21527;SDS011;10925;49.102;-0.370;2022-07-09T13:23:59;3.40;;;1.90;;
21527;SDS011;10925;49.102;-0.370;2022-07-09T13:26:24;5.07;;;2.10;;
21527;SDS011;10925;49.102;-0.370;2022-07-09T13:28:53;2.58;;;1.90;;
21527;SDS011;10925;49.102;-0.370;2022-07-09T13:31:28;2.45;;;1.70;;
21527;SDS011;10925;49.102;-0.370;2022-07-09T13:33:55;2.95;;;2.10;;
21527;SDS011;10925;49.102;-0.370;2022-07-09T13:36:22;3.60;;;2.00;;
21527;SDS011;10925;49.102;-0.370;2022-07-09T13:38:53;2.13;;;1.70;;
21527;SDS011;10925;49.102;-0.370;2022-07-09T13:41:20;6.03;;;1.80;;
21527;SDS011;10925;49.102;-0.370;2022-07-09T13:43:47;3.53;;;1.63;;
21527;SDS011;10925;49.102;-0.370;2022-07-09T13:46:13;6.90;;;1.90;;
21527;SDS011;10925;49.102;-0.370;2022-07-09T13:48:44;2.45;;;1.90;;
21527;SDS011;10925;49.102;-0.370;2022-07-09T13:51:11;4.55;;;2.05;;
21527;SDS011;10925;49.102;-0.370;2022-07-09T13:53:40;4.88;;;1.77;;
21527;SDS011;10925;49.102;-0.370;2022-07-09T13:56:09;3.83;;;1.60;;
21527;SDS011;10925;49.102;-0.370;2022-07-09T13:58:42;4.32;;;1.52;;
21527;SDS011;10925;49.102;-0.370;2022-07-09T14:01:07;6.32;;;2.15;;
21527;SDS011;10925;49.102;-0.370;2022-07-09T14:03:36;2.90;;;1.67;;
21527;SDS011;10925;49.102;-0.370;2022-07-09T14:06:04;4.18;;;1.60;;
21527;SDS011;10925;49.102;-0.370;2022-07-09T14:08:51;1.33;;;1.13;;
21527;SDS011;10925;49.102;-0.370;2022-07-09T14:11:23;5.35;;;1.67;;
21527;SDS011;10925;49.102;-0.370;2022-07-09T14:13:55;2.75;;;1.17;;
21527;SDS011;10925;49.102;-0.370;2022-07-09T14:16:24;2.65;;;1.60;;
21527;SDS011;10925;49.102;-0.370;2022-07-09T14:18:52;5.30;;;1.30;;
21527;SDS011;10925;49.102;-0.370;2022-07-09T14:21:19;4.80;;;1.70;;
21527;SDS011;10925;49.102;-0.370;2022-07-09T14:23:45;2.35;;;1.60;;
21527;SDS011;10925;49.102;-0.370;2022-07-09T14:26:16;3.00;;;1.52;;
21527;SDS011;10925;49.102;-0.370;2022-07-09T14:28:42;1.48;;;1.10;;
21527;SDS011;10925;49.102;-0.370;2022-07-09T14:31:07;3.10;;;1.50;;
21527;SDS011;10925;49.102;-0.370;2022-07-09T14:33:36;3.28;;;1.20;;
21527;SDS011;10925;49.102;-0.370;2022-07-09T14:36:02;2.55;;;1.27;;
21527;SDS011;10925;49.102;-0.370;2022-07-09T14:38:29;1.92;;;1.33;;
21527;SDS011;10925;49.102;-0.370;2022-07-09T14:41:01;2.45;;;0.88;;
21527;SDS011;10925;49.102;-0.370;2022-07-09T14:43:30;4.10;;;1.20;;
21527;SDS011;10925;49.102;-0.370;2022-07-09T14:45:56;1.42;;;1.00;;
21527;SDS011;10925;49.102;-0.370;2022-07-09T14:48:23;0.70;;;0.70;;
21527;SDS011;10925;49.102;-0.370;2022-07-09T14:50:48;3.50;;;1.17;;
21527;SDS011;10925;49.102;-0.370;2022-07-09T14:53:17;2.35;;;0.90;;
21527;SDS011;10925;49.102;-0.370;2022-07-09T14:55:56;6.20;;;0.90;;
21527;SDS011;10925;49.102;-0.370;2022-07-09T14:58:31;2.22;;;0.95;;